createdAt,value
2024-04-22T00:01:33.677Z,101681.94
2024-04-22T00:04:10.574Z,101761.09
2024-04-22T00:06:39.351Z,101671.50
2024-04-22T00:09:09.510Z,101637.75
2024-04-22T00:11:37.520Z,101707.56
2024-04-22T00:14:10.024Z,101673.47
2024-04-22T00:16:37.871Z,101713.69
2024-04-22T00:19:18.847Z,101699.16
2024-04-22T00:21:46.694Z,101682.19
2024-04-22T00:24:22.307Z,101752.13
2024-04-22T00:26:55.197Z,101689.81
2024-04-22T00:29:26.184Z,101676.50
2024-04-22T00:31:54.613Z,101640.47
2024-04-22T00:34:31.362Z,101736.44
2024-04-22T00:36:58.949Z,101660.00
2024-04-22T00:39:31.357Z,101651.84
2024-04-22T00:42:07.094Z,101753.66
2024-04-22T00:44:41.499Z,101734.66
2024-04-22T00:47:16.010Z,101650.25
2024-04-22T00:49:55.797Z,101641.06
2024-04-22T00:52:27.615Z,101663.38
2024-04-22T00:55:08.268Z,101586.88
2024-04-22T00:57:39.164Z,101754.88
2024-04-22T01:00:13.910Z,101639.47
2024-04-22T01:02:51.215Z,101658.31
2024-04-22T01:05:31.736Z,101728.47
2024-04-22T01:07:59.438Z,101673.16
2024-04-22T01:10:31.266Z,101652.47
2024-04-22T01:12:59.345Z,101651.34
2024-04-22T01:15:32.457Z,101654.28
2024-04-22T01:18:00.671Z,101712.84
2024-04-22T01:20:44.011Z,101682.00
2024-04-22T01:23:14.347Z,101748.22
2024-04-22T01:25:53.509Z,101744.22
2024-04-22T01:28:30.383Z,101669.31
2024-04-22T01:31:02.003Z,101631.44
2024-04-22T01:33:35.867Z,101636.56
2024-04-22T01:36:13.490Z,101697.81
2024-04-22T01:38:44.054Z,101739.97
2024-04-22T01:41:20.047Z,101701.81
2024-04-22T01:43:53.301Z,101608.78
2024-04-22T01:46:28.310Z,101601.63
2024-04-22T01:48:59.683Z,101578.44
2024-04-22T01:51:41.271Z,101672.28
2024-04-22T01:54:15.184Z,101659.81
2024-04-22T01:56:47.701Z,101706.59
2024-04-22T01:59:16.254Z,101639.34
2024-04-22T02:01:49.770Z,101564.97
2024-04-22T02:04:20.065Z,101552.59
2024-04-22T02:06:53.741Z,101666.97
2024-04-22T02:09:25.209Z,101649.03
2024-04-22T02:11:57.790Z,101588.28
2024-04-22T02:14:29.023Z,101642.50
2024-04-22T02:16:59.795Z,101625.94
2024-04-22T02:19:30.827Z,101614.44
2024-04-22T02:22:01.265Z,101712.47
2024-04-22T02:24:31.856Z,101635.13
2024-04-22T02:27:04.118Z,101712.53
2024-04-22T02:29:33.412Z,101548.25
2024-04-22T02:32:08.430Z,101705.91
2024-04-22T02:34:39.129Z,101656.81
2024-04-22T02:37:11.981Z,101608.06
2024-04-22T02:39:53.663Z,101674.69
2024-04-22T02:42:23.899Z,101618.09
2024-04-22T02:44:53.938Z,101569.91
2024-04-22T02:47:24.280Z,101613.47
2024-04-22T02:49:51.912Z,101714.16
2024-04-22T02:52:24.690Z,101614.50
2024-04-22T02:54:54.898Z,101635.81
2024-04-22T02:57:25.458Z,101559.34
2024-04-22T02:59:54.235Z,101645.13
2024-04-22T03:02:25.053Z,101560.75
2024-04-22T03:04:58.288Z,101677.13
2024-04-22T03:07:29.623Z,101651.94
2024-04-22T03:10:02.530Z,101622.63
2024-04-22T03:12:36.294Z,101556.50
2024-04-22T03:15:04.840Z,101707.06
2024-04-22T03:17:39.341Z,101648.75
2024-04-22T03:20:10.310Z,101611.91
2024-04-22T03:22:42.737Z,101670.13
2024-04-22T03:25:17.015Z,101712.91
2024-04-22T03:27:47.437Z,101566.28
2024-04-22T03:30:17.268Z,101600.50
2024-04-22T03:32:50.281Z,101701.91
2024-04-22T03:35:19.217Z,101563.78
2024-04-22T03:37:58.035Z,101709.06
2024-04-22T03:40:30.886Z,101676.59
2024-04-22T03:43:06.492Z,101691.69
2024-04-22T03:45:38.842Z,101598.81
2024-04-22T03:48:27.296Z,101601.38
2024-04-22T03:51:01.103Z,101544.94
2024-04-22T03:53:32.055Z,101564.72
2024-04-22T03:56:05.420Z,101579.56
2024-04-22T03:58:40.550Z,101581.09
2024-04-22T04:01:13.914Z,101522.69
2024-04-22T04:03:41.615Z,101655.06
2024-04-22T04:06:12.251Z,101616.25
2024-04-22T04:08:39.931Z,101608.09
2024-04-22T04:11:20.297Z,101670.66
2024-04-22T04:13:48.174Z,101611.00
2024-04-22T04:16:18.439Z,101605.44
2024-04-22T04:18:47.281Z,101672.47
2024-04-22T04:21:24.489Z,101614.53
2024-04-22T04:23:52.030Z,101637.22
2024-04-22T04:26:26.758Z,101613.06
2024-04-22T04:29:01.977Z,101693.72
2024-04-22T04:31:32.463Z,101661.53
2024-04-22T04:34:02.832Z,101710.81
2024-04-22T04:36:35.878Z,101600.94
2024-04-22T04:39:05.540Z,101607.28
2024-04-22T04:41:38.519Z,101697.03
2024-04-22T04:44:08.462Z,101623.56
2024-04-22T04:46:40.530Z,101630.25
2024-04-22T04:49:08.452Z,101553.75
2024-04-22T04:51:47.432Z,101634.31
2024-04-22T04:54:18.020Z,101631.06
2024-04-22T04:56:51.051Z,101632.25
2024-04-22T04:59:23.486Z,101597.84
2024-04-22T05:01:54.729Z,101671.69
2024-04-22T05:04:26.695Z,101720.81
2024-04-22T05:06:57.225Z,101706.13
2024-04-22T05:09:27.736Z,101582.16
2024-04-22T05:12:01.169Z,101638.94
2024-04-22T05:14:41.910Z,101611.59
2024-04-22T05:17:15.436Z,101701.75
2024-04-22T05:19:44.524Z,101558.44
2024-04-22T05:22:15.191Z,101682.44
2024-04-22T05:24:45.271Z,101707.66
2024-04-22T05:27:20.786Z,101624.34
2024-04-22T05:29:50.850Z,101725.06
2024-04-22T05:32:24.297Z,101703.00
2024-04-22T05:35:10.427Z,101621.19
2024-04-22T05:37:41.003Z,101705.34
2024-04-22T05:40:16.917Z,101551.50
2024-04-22T05:42:49.978Z,101681.94
2024-04-22T05:45:20.145Z,101615.06
2024-04-22T05:47:50.687Z,101583.22
2024-04-22T05:50:18.486Z,101591.91
2024-04-22T05:52:51.173Z,101647.75
2024-04-22T05:55:24.640Z,101693.03
2024-04-22T05:57:59.656Z,101580.28
2024-04-22T06:00:39.076Z,101585.69
2024-04-22T06:03:06.948Z,101607.03
2024-04-22T06:05:41.493Z,101604.47
2024-04-22T06:08:10.154Z,101632.78
2024-04-22T06:10:40.570Z,101617.94
2024-04-22T06:13:16.986Z,101603.88
2024-04-22T06:15:48.462Z,101651.53
2024-04-22T06:18:16.199Z,101614.91
2024-04-22T06:20:52.423Z,101645.78
2024-04-22T06:23:22.295Z,101653.38
2024-04-22T06:25:53.112Z,101618.91
2024-04-22T06:28:23.547Z,101631.28
2024-04-22T06:30:59.025Z,101635.16
2024-04-22T06:33:31.294Z,101579.06
2024-04-22T06:36:03.745Z,101583.28
2024-04-22T06:38:34.026Z,101555.44
2024-04-22T06:41:04.605Z,101651.59
2024-04-22T06:43:42.767Z,101633.19
2024-04-22T06:46:13.069Z,101578.00
2024-04-22T06:48:48.593Z,101653.56
2024-04-22T06:51:22.587Z,101636.34
2024-04-22T06:53:50.268Z,101535.63
2024-04-22T06:56:23.343Z,101580.19
2024-04-22T06:59:00.964Z,101626.34
2024-04-22T07:01:38.389Z,101626.19
2024-04-22T07:04:14.138Z,101556.53
2024-04-22T07:06:45.122Z,101652.31
2024-04-22T07:09:17.925Z,101595.88
2024-04-22T07:11:50.920Z,101668.16
2024-04-22T07:14:30.357Z,101663.19
2024-04-22T07:17:01.698Z,101650.94
2024-04-22T07:19:35.332Z,101688.03
2024-04-22T07:22:16.987Z,101686.72
2024-04-22T07:24:57.109Z,101611.19
2024-04-22T07:27:44.054Z,101594.81
2024-04-22T07:30:22.431Z,101581.41
2024-04-22T07:32:54.214Z,101581.41
2024-04-22T07:35:26.041Z,101556.41
2024-04-22T07:38:02.859Z,101661.41
2024-04-22T07:40:31.792Z,101666.47
2024-04-22T07:43:07.582Z,101589.13
2024-04-22T07:45:42.718Z,101553.22
2024-04-22T07:48:13.624Z,101672.31
2024-04-22T07:50:42.951Z,101570.00
2024-04-22T07:53:16.267Z,101636.13
2024-04-22T07:55:44.854Z,101565.81
2024-04-22T07:58:20.111Z,101558.94
2024-04-22T08:00:50.963Z,101653.44
2024-04-22T08:03:25.938Z,101657.09
2024-04-22T08:05:58.260Z,101569.69
2024-04-22T08:08:30.932Z,101532.94
2024-04-22T08:11:01.122Z,101651.09
2024-04-22T08:13:31.712Z,101531.91
2024-04-22T08:16:02.031Z,101666.44
2024-04-22T08:18:35.372Z,101558.44
2024-04-22T08:21:08.593Z,101572.53
2024-04-22T08:23:46.120Z,101580.84
2024-04-22T08:26:13.821Z,101660.91
2024-04-22T08:28:45.403Z,101533.34
2024-04-22T08:31:16.393Z,101603.38
2024-04-22T08:33:47.055Z,101610.53
2024-04-22T08:36:16.514Z,101626.44
2024-04-22T08:38:52.564Z,101668.50
2024-04-22T08:41:20.559Z,101548.00
2024-04-22T08:43:51.016Z,101659.91
2024-04-22T08:46:23.998Z,101617.16
2024-04-22T08:48:59.592Z,101566.69
2024-04-22T08:51:35.886Z,101512.81
2024-04-22T08:54:05.993Z,101592.34
2024-04-22T08:56:41.353Z,101632.94
2024-04-22T08:59:15.838Z,101598.16
2024-04-22T09:02:05.452Z,101580.09
2024-04-22T09:04:39.066Z,101522.09
2024-04-22T09:07:19.273Z,101518.91
2024-04-22T09:10:21.864Z,101570.72
2024-04-22T09:13:00.698Z,101627.28
2024-04-22T09:15:31.327Z,101600.34
2024-04-22T09:18:05.139Z,101603.72
2024-04-22T09:20:35.812Z,101627.97
2024-04-22T09:23:06.700Z,101538.41
2024-04-22T09:25:52.014Z,101505.63
2024-04-22T09:28:31.196Z,101600.59
2024-04-22T09:31:06.015Z,101568.38
2024-04-22T09:33:40.602Z,101559.72
2024-04-22T09:36:13.684Z,101631.44
2024-04-22T09:38:47.406Z,101513.00
2024-04-22T09:41:17.437Z,101615.31
2024-04-22T09:43:58.751Z,101587.31
2024-04-22T09:46:32.481Z,101509.84
2024-04-22T09:49:12.441Z,101628.03
2024-04-22T09:51:44.868Z,101571.84
2024-04-22T09:54:15.290Z,101530.00
2024-04-22T09:56:43.774Z,101555.56
2024-04-22T09:59:14.690Z,101474.91
2024-04-22T10:01:47.458Z,101529.31
2024-04-22T10:04:24.884Z,101550.38
2024-04-22T10:06:52.899Z,101588.03
2024-04-22T10:09:30.353Z,101591.47
2024-04-22T10:12:08.477Z,101522.53
2024-04-22T10:14:44.145Z,101573.91
2024-04-22T10:17:20.900Z,101507.88
2024-04-22T10:20:03.953Z,101557.34
2024-04-22T10:22:38.233Z,101465.91
2024-04-22T10:25:10.099Z,101518.44
2024-04-22T10:27:43.293Z,101492.72
2024-04-22T10:30:28.041Z,101489.59
2024-04-22T10:32:58.562Z,101440.09
2024-04-22T10:35:35.670Z,101508.78
2024-04-22T10:38:05.999Z,101543.88
2024-04-22T10:40:37.551Z,101583.28
2024-04-22T10:43:11.550Z,101556.94
2024-04-22T10:45:44.721Z,101471.41
2024-04-22T10:48:19.865Z,101494.22
2024-04-22T10:50:56.924Z,101584.66
2024-04-22T10:53:32.782Z,101491.16
2024-04-22T10:56:05.067Z,101440.00
2024-04-22T10:58:33.743Z,101509.66
2024-04-22T11:01:06.884Z,101539.97
2024-04-22T11:03:39.926Z,101483.91
2024-04-22T11:06:16.294Z,101567.16
2024-04-22T11:08:47.832Z,101477.72
2024-04-22T11:11:21.252Z,101450.09
2024-04-22T11:13:51.823Z,101528.69
2024-04-22T11:16:22.152Z,101528.78
2024-04-22T11:19:06.172Z,101459.84
2024-04-22T11:21:40.161Z,101563.00
2024-04-22T11:24:08.490Z,101491.72
2024-04-22T11:26:43.278Z,101551.81
2024-04-22T11:29:13.506Z,101443.31
2024-04-22T11:31:45.404Z,101466.09
2024-04-22T11:34:15.638Z,101557.81
2024-04-22T11:36:57.854Z,101441.72
2024-04-22T11:39:27.886Z,101438.91
2024-04-22T11:41:58.322Z,101437.38
2024-04-22T11:44:28.574Z,101425.44
2024-04-22T11:47:01.685Z,101418.88
2024-04-22T11:49:32.051Z,101487.34
2024-04-22T11:52:05.021Z,101434.53
2024-04-22T11:54:32.842Z,101471.53
2024-04-22T11:57:03.928Z,101457.94
2024-04-22T11:59:40.533Z,101537.63
2024-04-22T12:02:18.383Z,101547.66
2024-04-22T12:04:46.512Z,101538.78
2024-04-22T12:07:19.871Z,101461.78
2024-04-22T12:09:49.930Z,101465.66
2024-04-22T12:12:20.448Z,101445.78
2024-04-22T12:14:48.512Z,101447.09
2024-04-22T12:17:23.217Z,101516.75
2024-04-22T12:19:51.213Z,101450.84
2024-04-22T12:22:24.523Z,101518.22
2024-04-22T12:24:54.450Z,101366.66
2024-04-22T12:27:25.043Z,101432.56
2024-04-22T12:29:57.108Z,101384.94
2024-04-22T12:32:29.037Z,101511.75
2024-04-22T12:35:01.290Z,101491.56
2024-04-22T12:37:36.062Z,101330.28
2024-04-22T12:40:05.527Z,101520.22
2024-04-22T12:42:45.944Z,101338.16
2024-04-22T12:45:16.691Z,101412.75
2024-04-22T12:48:02.558Z,101427.03
2024-04-22T12:50:47.045Z,101503.75
2024-04-22T12:53:23.356Z,101424.69
2024-04-22T12:55:57.047Z,101381.28
2024-04-22T12:58:32.276Z,101430.50
2024-04-22T13:01:06.266Z,101448.06
2024-04-22T13:03:37.174Z,101356.38
2024-04-22T13:06:10.354Z,101370.97
2024-04-22T13:08:48.534Z,101363.44
2024-04-22T13:11:25.248Z,101390.38
2024-04-22T13:13:55.876Z,101394.25
2024-04-22T13:16:30.880Z,101397.63
2024-04-22T13:19:07.148Z,101388.53
2024-04-22T13:21:38.173Z,101470.13
2024-04-22T13:24:12.970Z,101461.72
2024-04-22T13:26:44.703Z,101409.69
2024-04-22T13:29:24.908Z,101437.53
2024-04-22T13:31:54.935Z,101422.34
2024-04-22T13:34:25.444Z,101428.06
2024-04-22T13:36:54.714Z,101489.91
2024-04-22T13:39:28.288Z,101398.28
2024-04-22T13:41:58.251Z,101354.19
2024-04-22T13:44:30.695Z,101492.16
2024-04-22T13:47:05.345Z,101321.09
2024-04-22T13:49:57.489Z,101400.69
2024-04-22T13:52:36.637Z,101352.28
2024-04-22T13:55:15.961Z,101345.03
2024-04-22T13:57:48.212Z,101421.34
2024-04-22T14:00:23.763Z,101385.16
2024-04-22T14:02:57.517Z,101420.72
2024-04-22T14:05:29.590Z,101333.03
2024-04-22T14:08:04.243Z,101385.84
2024-04-22T14:10:44.251Z,101349.28
2024-04-22T14:13:18.722Z,101333.00
2024-04-22T14:15:50.584Z,101460.22
2024-04-22T14:18:27.178Z,101309.22
2024-04-22T14:21:00.015Z,101449.59
2024-04-22T14:23:33.531Z,101375.59
2024-04-22T14:26:06.706Z,101359.84
2024-04-22T14:28:42.048Z,101365.06
2024-04-22T14:31:15.601Z,101344.69
2024-04-22T14:33:54.346Z,101353.44
2024-04-22T14:36:22.089Z,101404.94
2024-04-22T14:38:54.869Z,101357.56
2024-04-22T14:41:34.039Z,101420.63
2024-04-22T14:44:04.549Z,101293.81
2024-04-22T14:46:34.407Z,101403.88
2024-04-22T14:49:07.939Z,101416.22
2024-04-22T14:51:35.708Z,101253.78
2024-04-22T14:54:07.206Z,101424.88
2024-04-22T14:56:39.478Z,101323.06
2024-04-22T14:59:09.994Z,101295.69
2024-04-22T15:01:40.541Z,101327.75
2024-04-22T15:04:26.773Z,101248.06
2024-04-22T15:06:58.991Z,101354.41
2024-04-22T15:09:31.726Z,101332.56
2024-04-22T15:12:04.627Z,101330.16
2024-04-22T15:14:35.882Z,101291.78
2024-04-22T15:17:08.110Z,101276.84
2024-04-22T15:19:42.114Z,101347.31
2024-04-22T15:22:11.459Z,101312.72
2024-04-22T15:24:41.910Z,101346.44
2024-04-22T15:27:22.829Z,101284.22
2024-04-22T15:29:53.802Z,101419.19
2024-04-22T15:32:28.202Z,101333.47
2024-04-22T15:34:58.638Z,101271.81
2024-04-22T15:37:27.164Z,101420.56
2024-04-22T15:39:58.771Z,101377.53
2024-04-22T15:42:32.149Z,101383.03
2024-04-22T15:45:11.830Z,101300.53
2024-04-22T15:47:43.307Z,101292.09
2024-04-22T15:50:13.704Z,101414.94
2024-04-22T15:52:44.425Z,101297.72
2024-04-22T15:55:21.872Z,101420.16
2024-04-22T15:57:58.175Z,101434.06
2024-04-22T16:00:33.844Z,101430.69
2024-04-22T16:03:03.799Z,101345.59
2024-04-22T16:05:36.777Z,101438.03
2024-04-22T16:08:08.160Z,101287.03
2024-04-22T16:10:39.220Z,101405.56
2024-04-22T16:13:20.040Z,101365.28
2024-04-22T16:15:50.538Z,101439.47
2024-04-22T16:18:18.762Z,101301.53
2024-04-22T16:20:56.212Z,101324.66
2024-04-22T16:23:32.783Z,101369.59
2024-04-22T16:26:07.643Z,101307.44
2024-04-22T16:28:39.213Z,101436.81
2024-04-22T16:31:09.677Z,101388.47
2024-04-22T16:33:37.802Z,101413.16
2024-04-22T16:36:09.490Z,101374.53
2024-04-22T16:38:37.352Z,101345.19
2024-04-22T16:41:10.628Z,101429.72
2024-04-22T16:43:43.173Z,101399.94
2024-04-22T16:46:14.070Z,101418.41
2024-04-22T16:48:46.423Z,101430.09
2024-04-22T16:51:21.751Z,101324.53
2024-04-22T16:53:52.444Z,101394.69
2024-04-22T16:56:25.929Z,101310.84
2024-04-22T16:58:59.124Z,101328.13
2024-04-22T17:01:29.757Z,101319.28
2024-04-22T17:04:06.519Z,101304.47
2024-04-22T17:06:37.927Z,101410.91
2024-04-22T17:09:07.561Z,101306.19
2024-04-22T17:11:39.677Z,101343.38
2024-04-22T17:14:10.235Z,101360.31
2024-04-22T17:16:43.520Z,101350.09
2024-04-22T17:19:13.301Z,101320.09
2024-04-22T17:21:44.161Z,101312.88
2024-04-22T17:24:11.896Z,101372.66
2024-04-22T17:26:45.888Z,101335.38
2024-04-22T17:29:20.106Z,101344.44
2024-04-22T17:31:50.744Z,101351.91
2024-04-22T17:34:18.657Z,101388.38
2024-04-22T17:36:50.228Z,101303.34
2024-04-22T17:39:21.986Z,101423.06
2024-04-22T17:41:52.551Z,101302.47
2024-04-22T17:44:26.751Z,101430.03
2024-04-22T17:47:03.976Z,101437.28
2024-04-22T17:49:37.590Z,101306.88
2024-04-22T17:52:06.023Z,101341.66
2024-04-22T17:54:39.301Z,101392.25
2024-04-22T17:57:09.722Z,101335.69
2024-04-22T17:59:45.059Z,101427.16
2024-04-22T18:02:12.687Z,101438.84
2024-04-22T18:04:43.193Z,101371.53
2024-04-22T18:07:13.166Z,101324.03
2024-04-22T18:09:51.378Z,101383.28
2024-04-22T18:12:21.647Z,101369.00
2024-04-22T18:14:57.753Z,101436.84
2024-04-22T18:17:25.447Z,101384.97
2024-04-22T18:19:55.775Z,101410.91
2024-04-22T18:22:25.926Z,101435.13
2024-04-22T18:24:57.731Z,101366.75
2024-04-22T18:27:30.413Z,101340.53
2024-04-22T18:30:06.459Z,101320.00
2024-04-22T18:32:38.828Z,101343.78
2024-04-22T18:35:14.427Z,101452.06
2024-04-22T18:37:46.695Z,101400.47
2024-04-22T18:40:17.011Z,101441.66
2024-04-22T18:42:50.676Z,101323.25
2024-04-22T18:45:30.729Z,101366.13
2024-04-22T18:48:00.097Z,101383.22
2024-04-22T18:50:35.104Z,101406.97
2024-04-22T18:53:04.656Z,101445.88
2024-04-22T18:55:37.322Z,101467.44
2024-04-22T18:58:09.455Z,101371.59
2024-04-22T19:00:44.862Z,101389.13
2024-04-22T19:03:18.203Z,101419.03
2024-04-22T19:05:50.220Z,101326.50
2024-04-22T19:08:26.988Z,101436.47
2024-04-22T19:11:01.589Z,101460.06
2024-04-22T19:13:35.806Z,101414.88
2024-04-22T19:16:21.633Z,101417.69
2024-04-22T19:18:52.996Z,101451.78
2024-04-22T19:21:25.648Z,101377.75
2024-04-22T19:23:57.390Z,101428.03
2024-04-22T19:26:30.897Z,101439.38
2024-04-22T19:29:02.062Z,101480.94
2024-04-22T19:31:43.080Z,101370.31
2024-04-22T19:34:10.695Z,101416.22
2024-04-22T19:36:40.982Z,101400.47
2024-04-22T19:39:17.190Z,101427.13
2024-04-22T19:41:50.233Z,101389.59
2024-04-22T19:44:18.839Z,101388.06
2024-04-22T19:46:52.369Z,101426.88
2024-04-22T19:49:20.061Z,101386.09
2024-04-22T19:51:51.370Z,101358.59
2024-04-22T19:54:20.823Z,101417.59
2024-04-22T19:56:51.378Z,101381.50
2024-04-22T19:59:19.737Z,101464.28
2024-04-22T20:02:11.723Z,101430.50
2024-04-22T20:05:06.069Z,101440.19
2024-04-22T20:07:41.952Z,101492.75
2024-04-22T20:10:11.441Z,101417.03
2024-04-22T20:12:46.384Z,101518.72
2024-04-22T20:15:30.103Z,101406.59
2024-04-22T20:18:16.471Z,101477.53
2024-04-22T20:20:44.568Z,101425.16
2024-04-22T20:23:15.031Z,101454.81
2024-04-22T20:25:56.756Z,101398.03
2024-04-22T20:28:27.557Z,101532.94
2024-04-22T20:31:02.125Z,101409.53
2024-04-22T20:33:38.079Z,101456.97
2024-04-22T20:36:08.625Z,101410.41
2024-04-22T20:38:46.538Z,101405.91
2024-04-22T20:41:46.530Z,101445.31
2024-04-22T20:44:25.605Z,101408.31
2024-04-22T20:46:53.276Z,101419.72
2024-04-22T20:49:40.560Z,101442.63
2024-04-22T20:52:19.126Z,101435.22
2024-04-22T20:54:54.583Z,101360.50
2024-04-22T20:57:26.284Z,101504.56
2024-04-22T20:59:56.798Z,101423.41
2024-04-22T21:02:29.188Z,101502.84
2024-04-22T21:05:11.823Z,101442.50
2024-04-22T21:07:44.298Z,101526.91
2024-04-22T21:10:15.606Z,101510.34
2024-04-22T21:12:46.263Z,101436.00
2024-04-22T21:15:19.764Z,101483.03
2024-04-22T21:17:47.519Z,101374.41
2024-04-22T21:20:20.706Z,101457.31
2024-04-22T21:22:59.447Z,101521.00
2024-04-22T21:25:36.958Z,101419.31
2024-04-22T21:28:39.305Z,101395.59
2024-04-22T21:31:21.308Z,101409.03
2024-04-22T21:34:07.150Z,101445.00
2024-04-22T21:36:40.048Z,101378.69
2024-04-22T21:39:15.432Z,101440.13
2024-04-22T21:41:55.553Z,101418.59
2024-04-22T21:44:27.418Z,101441.19
2024-04-22T21:47:00.372Z,101444.13
2024-04-22T21:50:04.922Z,101438.13
2024-04-22T21:52:39.142Z,101447.13
2024-04-22T21:55:52.714Z,101454.69
2024-04-22T21:59:02.024Z,101529.22
2024-04-22T22:02:15.890Z,101490.72
2024-04-22T22:05:23.973Z,101531.88
2024-04-22T22:07:53.944Z,101510.00
2024-04-22T22:10:30.529Z,101484.28
2024-04-22T22:12:59.780Z,101441.63
2024-04-22T22:15:41.879Z,101532.53
2024-04-22T22:18:10.927Z,101455.63
2024-04-22T22:20:44.035Z,101449.78
2024-04-22T22:23:11.913Z,101549.88
2024-04-22T22:25:45.445Z,101451.56
2024-04-22T22:28:18.410Z,101423.31
2024-04-22T22:30:54.365Z,101458.06
2024-04-22T22:33:22.093Z,101436.97
2024-04-22T22:35:55.491Z,101437.16
2024-04-22T22:38:26.150Z,101391.03
2024-04-22T22:41:02.285Z,101507.84
2024-04-22T22:43:37.193Z,101532.53
2024-04-22T22:46:10.540Z,101413.91
2024-04-22T22:48:41.767Z,101434.72
2024-04-22T22:51:19.079Z,101443.47
2024-04-22T22:54:00.725Z,101478.06
2024-04-22T22:56:39.700Z,101543.41
2024-04-22T22:59:11.447Z,101438.78
2024-04-22T23:01:42.306Z,101515.47
2024-04-22T23:04:13.184Z,101428.72
2024-04-22T23:06:46.538Z,101533.53
2024-04-22T23:09:17.001Z,101439.69
2024-04-22T23:11:50.545Z,101386.72
2024-04-22T23:14:20.534Z,101472.22
2024-04-22T23:16:57.984Z,101473.44
2024-04-22T23:19:48.162Z,101457.47
2024-04-22T23:22:23.798Z,101388.19
2024-04-22T23:24:59.934Z,101428.41
2024-04-22T23:27:34.422Z,101444.00
2024-04-22T23:30:05.298Z,101480.34
2024-04-22T23:32:38.577Z,101388.84
2024-04-22T23:35:11.181Z,101518.38
2024-04-22T23:37:43.781Z,101474.44
2024-04-22T23:40:14.280Z,101513.44
2024-04-22T23:42:47.029Z,101428.56
2024-04-22T23:45:15.255Z,101424.66
2024-04-22T23:47:51.768Z,101433.44
2024-04-22T23:50:21.792Z,101459.28
2024-04-22T23:52:53.088Z,101439.19
2024-04-22T23:55:24.979Z,101404.88
2024-04-22T23:58:02.434Z,101395.22
